createdAt,value
2023-04-21T00:00:11.743Z,15.66
2023-04-21T00:03:18.083Z,15.49
2023-04-21T00:06:23.224Z,15.15
2023-04-21T00:09:26.932Z,15.33
2023-04-21T00:12:30.544Z,15.02
2023-04-21T00:15:34.142Z,14.86
2023-04-21T00:18:39.915Z,14.97
2023-04-21T00:21:43.661Z,14.84
2023-04-21T00:24:47.377Z,14.45
2023-04-21T00:27:51.047Z,14.86
2023-04-21T00:30:55.575Z,15.17
2023-04-21T00:34:00.650Z,15.06
2023-04-21T00:37:04.595Z,15.00
2023-04-21T00:40:10.768Z,14.76
2023-04-21T00:43:16.795Z,14.97
2023-04-21T00:46:20.887Z,15.08
2023-04-21T00:49:27.027Z,14.52
2023-04-21T00:52:31.617Z,14.38
2023-04-21T00:55:35.512Z,14.49
2023-04-21T00:58:43.418Z,14.62
2023-04-21T01:01:47.076Z,14.90
2023-04-21T01:04:52.833Z,15.04
2023-04-21T01:07:56.574Z,14.82
2023-04-21T01:11:00.125Z,14.58
2023-04-21T01:14:03.724Z,13.93
2023-04-21T01:17:08.335Z,14.24
2023-04-21T01:20:15.038Z,14.05
2023-04-21T01:23:21.281Z,14.23
2023-04-21T01:26:25.074Z,13.76
2023-04-21T01:29:28.766Z,14.31
2023-04-21T01:32:32.577Z,14.42
2023-04-21T01:35:36.464Z,13.87
2023-04-21T01:38:43.210Z,14.19
2023-04-21T01:41:46.940Z,14.47
2023-04-21T01:44:51.419Z,14.69
2023-04-21T01:47:55.047Z,14.71
2023-04-21T01:50:58.812Z,14.65
2023-04-21T01:54:05.109Z,14.75
2023-04-21T01:57:08.968Z,14.80
2023-04-21T02:00:13.863Z,14.84
2023-04-21T02:03:21.744Z,14.73
2023-04-21T02:06:25.573Z,14.55
2023-04-21T02:09:31.371Z,14.35
2023-04-21T02:12:34.884Z,14.12
2023-04-21T02:15:39.111Z,14.16
2023-04-21T02:18:44.817Z,14.24
2023-04-21T02:21:48.739Z,14.36
2023-04-21T02:24:53.646Z,14.20
2023-04-21T02:27:57.547Z,14.05
2023-04-21T02:31:03.829Z,14.25
2023-04-21T02:34:10.529Z,14.23
2023-04-21T02:37:15.356Z,14.11
2023-04-21T02:40:21.404Z,13.83
2023-04-21T02:43:25.066Z,14.16
2023-04-21T02:46:28.689Z,14.11
2023-04-21T02:49:32.237Z,14.16
2023-04-21T02:52:38.295Z,13.71
2023-04-21T02:55:43.300Z,13.74
2023-04-21T02:58:46.800Z,13.11
2023-04-21T03:01:50.534Z,13.56
2023-04-21T03:04:54.380Z,13.68
2023-04-21T03:07:57.921Z,13.88
2023-04-21T03:11:03.186Z,13.82
2023-04-21T03:14:06.863Z,13.77
2023-04-21T03:17:10.861Z,13.95
2023-04-21T03:20:14.804Z,13.52
2023-04-21T03:23:18.457Z,13.20
2023-04-21T03:26:23.689Z,13.59
2023-04-21T03:29:27.351Z,13.70
2023-04-21T03:32:31.328Z,13.44
2023-04-21T03:35:35.630Z,13.63
2023-04-21T03:38:39.258Z,13.61
2023-04-21T03:41:44.410Z,13.83
2023-04-21T03:44:48.126Z,13.90
2023-04-21T03:47:55.415Z,13.71
2023-04-21T03:50:59.142Z,13.63
2023-04-21T03:54:02.736Z,13.87
2023-04-21T03:57:07.765Z,13.84
2023-04-21T04:00:12.962Z,13.46
2023-04-21T04:03:16.651Z,13.53
2023-04-21T04:06:20.537Z,13.60
2023-04-21T04:09:24.105Z,12.82
2023-04-21T04:12:29.270Z,12.12
2023-04-21T04:15:32.939Z,12.52
2023-04-21T04:18:36.662Z,13.01
2023-04-21T04:21:40.425Z,13.53
2023-04-21T04:24:45.352Z,13.67
2023-04-21T04:27:50.831Z,13.80
2023-04-21T04:30:55.623Z,14.09
2023-04-21T04:33:59.575Z,14.14
2023-04-21T04:37:03.884Z,14.05
2023-04-21T04:40:10.383Z,14.09
2023-04-21T04:43:15.604Z,14.29
2023-04-21T04:46:20.894Z,14.32
2023-04-21T04:49:24.816Z,14.39
2023-04-21T04:52:28.485Z,14.30
2023-04-21T04:55:32.506Z,14.56
2023-04-21T04:58:37.600Z,14.47
2023-04-21T05:01:42.254Z,14.77
2023-04-21T05:04:46.057Z,14.76
2023-04-21T05:07:49.914Z,14.65
2023-04-21T05:10:53.631Z,14.76
2023-04-21T05:13:58.848Z,14.78
2023-04-21T05:17:02.594Z,15.34
2023-04-21T05:20:06.957Z,15.45
2023-04-21T05:23:10.714Z,15.74
2023-04-21T05:26:14.336Z,15.80
2023-04-21T05:29:19.470Z,16.32
2023-04-21T05:32:23.283Z,16.38
2023-04-21T05:35:27.060Z,16.27
2023-04-21T05:38:30.701Z,16.52
2023-04-21T05:41:34.471Z,16.81
2023-04-21T05:44:40.320Z,16.59
2023-04-21T05:47:44.019Z,16.48
2023-04-21T05:50:47.787Z,16.94
2023-04-21T05:53:51.824Z,16.70
2023-04-21T05:56:55.480Z,16.99
2023-04-21T06:00:00.607Z,17.15
2023-04-21T06:03:05.063Z,17.46
2023-04-21T06:06:09.347Z,17.50
2023-04-21T06:09:15.852Z,17.56
2023-04-21T06:12:19.531Z,17.61
2023-04-21T06:15:24.790Z,17.91
2023-04-21T06:18:29.305Z,17.85
2023-04-21T06:21:33.064Z,17.97
2023-04-21T06:24:36.744Z,18.03
2023-04-21T06:27:40.474Z,18.02
2023-04-21T06:30:46.369Z,18.29
2023-04-21T06:33:50.101Z,18.20
2023-04-21T06:36:53.771Z,18.87
2023-04-21T06:39:57.604Z,18.83
2023-04-21T06:43:01.501Z,19.09
2023-04-21T06:46:06.862Z,18.80
2023-04-21T06:49:10.609Z,19.06
2023-04-21T06:52:14.675Z,19.35
2023-04-21T06:55:18.533Z,19.22
2023-04-21T06:58:22.254Z,19.04
2023-04-21T07:01:27.563Z,19.08
2023-04-21T07:04:32.433Z,19.44
2023-04-21T07:07:36.321Z,19.58
2023-04-21T07:10:40.059Z,19.77
2023-04-21T07:13:43.754Z,19.57
2023-04-21T07:16:48.921Z,20.01
2023-04-21T07:19:52.805Z,19.62
2023-04-21T07:22:56.936Z,19.87
2023-04-21T07:26:01.106Z,19.91
2023-04-21T07:29:04.882Z,20.36
2023-04-21T07:32:10.081Z,20.15
2023-04-21T07:35:13.754Z,20.42
2023-04-21T07:38:17.538Z,20.68
2023-04-21T07:41:21.205Z,20.40
2023-04-21T07:44:25.313Z,19.99
2023-04-21T07:47:30.827Z,20.66
2023-04-21T07:50:35.923Z,20.83
2023-04-21T07:53:39.562Z,21.12
2023-04-21T07:56:43.211Z,20.99
2023-04-21T07:59:46.855Z,20.95
2023-04-21T08:02:52.107Z,20.95
2023-04-21T08:05:56.076Z,20.81
2023-04-21T08:09:00.275Z,20.91
2023-04-21T08:12:04.173Z,21.52
2023-04-21T08:15:09.099Z,21.83
2023-04-21T08:18:18.214Z,21.91
2023-04-21T08:21:24.257Z,21.74
2023-04-21T08:24:28.009Z,21.72
2023-04-21T08:27:31.756Z,21.71
2023-04-21T08:30:35.558Z,22.12
2023-04-21T08:33:46.964Z,21.99
2023-04-21T08:37:02.218Z,22.47
2023-04-21T08:40:06.582Z,22.92
2023-04-21T08:43:10.630Z,22.15
2023-04-21T08:46:14.463Z,21.98
2023-04-21T08:49:22.277Z,22.40
2023-04-21T08:52:26.172Z,22.68
2023-04-21T08:55:32.221Z,22.77
2023-04-21T08:58:35.900Z,22.79
2023-04-21T09:02:11.195Z,22.68
2023-04-21T09:05:24.212Z,22.91
2023-04-21T09:08:30.006Z,22.53
2023-04-21T09:11:35.299Z,23.08
2023-04-21T09:14:38.977Z,22.60
2023-04-21T09:17:46.477Z,23.10
2023-04-21T09:20:53.315Z,23.62
2023-04-21T09:23:57.098Z,23.73
2023-04-21T09:27:05.141Z,23.72
2023-04-21T09:30:10.648Z,23.84
2023-04-21T09:33:27.941Z,23.71
2023-04-21T09:36:37.876Z,23.20
2023-04-21T09:39:53.047Z,23.59
2023-04-21T09:43:07.122Z,24.25
2023-04-21T09:46:12.723Z,24.00
2023-04-21T09:49:19.180Z,24.40
2023-04-21T09:52:25.855Z,24.36
2023-04-21T09:55:31.127Z,24.54
2023-04-21T09:58:41.968Z,25.03
2023-04-21T10:01:48.760Z,25.30
2023-04-21T10:04:53.021Z,24.89
2023-04-21T10:07:59.536Z,25.43
2023-04-21T10:11:05.233Z,24.62
2023-04-21T10:14:10.629Z,24.76
2023-04-21T10:17:15.051Z,25.18
2023-04-21T10:20:19.969Z,25.28
2023-04-21T10:23:33.284Z,25.49
2023-04-21T10:26:37.607Z,25.41
2023-04-21T10:29:55.756Z,24.70
2023-04-21T10:33:04.622Z,24.34
2023-04-21T10:36:14.383Z,24.60
2023-04-21T10:39:29.914Z,25.10
2023-04-21T10:42:37.763Z,25.81
2023-04-21T10:45:41.480Z,25.03
2023-04-21T10:48:54.115Z,24.83
2023-04-21T10:52:10.061Z,24.00
2023-04-21T10:55:16.306Z,23.54
2023-04-21T10:58:21.124Z,23.40
2023-04-21T11:01:25.116Z,23.19
2023-04-21T11:04:29.446Z,22.70
2023-04-21T11:07:33.865Z,22.78
2023-04-21T11:10:54.655Z,22.90
2023-04-21T11:14:01.661Z,22.92
2023-04-21T11:17:06.635Z,22.76
2023-04-21T11:20:11.228Z,23.61
2023-04-21T11:23:19.330Z,24.09
2023-04-21T11:26:35.927Z,24.33
2023-04-21T11:29:40.547Z,24.54
2023-04-21T11:32:44.409Z,24.51
2023-04-21T11:35:48.140Z,25.07
2023-04-21T11:38:51.897Z,24.79
2023-04-21T11:41:57.414Z,24.03
2023-04-21T11:45:01.103Z,23.85
2023-04-21T11:48:15.516Z,23.72
2023-04-21T11:51:22.173Z,23.60
2023-04-21T11:54:26.472Z,23.32
2023-04-21T11:57:32.678Z,23.72
2023-04-21T12:00:36.705Z,23.50
2023-04-21T12:03:40.844Z,23.61
2023-04-21T12:06:45.048Z,23.70
2023-04-21T12:09:53.150Z,23.91
2023-04-21T12:12:58.948Z,24.68
2023-04-21T12:16:04.596Z,24.90
2023-04-21T12:19:08.321Z,24.56
2023-04-21T12:22:13.309Z,23.84
2023-04-21T12:25:17.383Z,23.78
2023-04-21T12:28:22.662Z,23.88
2023-04-21T12:31:26.315Z,23.80
2023-04-21T12:34:30.124Z,23.62
2023-04-21T12:37:33.804Z,23.22
2023-04-21T12:40:37.533Z,22.83
2023-04-21T12:43:42.567Z,22.32
2023-04-21T12:46:46.333Z,21.00
2023-04-21T12:49:50.172Z,21.13
2023-04-21T12:52:55.471Z,21.01
2023-04-21T12:56:04.704Z,20.36
2023-04-21T12:59:11.309Z,20.73
2023-04-21T13:02:15.211Z,20.98
2023-04-21T13:05:19.189Z,21.77
2023-04-21T13:08:23.413Z,22.39
2023-04-21T13:11:27.367Z,22.69
2023-04-21T13:14:32.714Z,23.07
2023-04-21T13:17:36.470Z,23.79
2023-04-21T13:20:40.279Z,23.46
2023-04-21T13:23:43.992Z,22.73
2023-04-21T13:26:47.702Z,22.73
2023-04-21T13:29:54.491Z,22.96
2023-04-21T13:32:58.253Z,22.63
2023-04-21T13:36:02.119Z,22.61
2023-04-21T13:39:06.113Z,22.11
2023-04-21T13:42:09.934Z,21.91
2023-04-21T13:45:15.545Z,22.07
2023-04-21T13:48:20.038Z,22.13
2023-04-21T13:51:23.845Z,22.37
2023-04-21T13:54:27.929Z,22.85
2023-04-21T13:57:31.737Z,23.32
2023-04-21T14:00:36.910Z,23.73
2023-04-21T14:03:40.746Z,23.51
2023-04-21T14:06:44.775Z,23.58
2023-04-21T14:09:48.591Z,23.98
2023-04-21T14:12:52.241Z,24.34
2023-04-21T14:15:57.912Z,24.17
2023-04-21T14:19:01.796Z,24.09
2023-04-21T14:22:05.530Z,24.54
2023-04-21T14:25:09.855Z,24.37
2023-04-21T14:28:13.542Z,24.56
2023-04-21T14:31:21.626Z,24.51
2023-04-21T14:34:26.260Z,24.24
2023-04-21T14:37:30.221Z,23.57
2023-04-21T14:40:33.904Z,23.01
2023-04-21T14:43:37.720Z,22.81
2023-04-21T14:46:46.245Z,22.66
2023-04-21T14:49:56.196Z,22.59
2023-04-21T14:52:59.935Z,21.84
2023-04-21T14:56:03.705Z,21.51
2023-04-21T14:59:07.666Z,21.05
2023-04-21T15:02:13.979Z,20.91
2023-04-21T15:05:18.928Z,20.99
2023-04-21T15:08:22.657Z,20.99
2023-04-21T15:11:26.856Z,20.86
2023-04-21T15:14:30.581Z,20.94
2023-04-21T15:17:35.859Z,20.92
2023-04-21T15:20:45.072Z,21.22
2023-04-21T15:23:49.982Z,21.77
2023-04-21T15:26:53.711Z,21.87
2023-04-21T15:29:57.458Z,22.22
2023-04-21T15:33:02.752Z,22.37
2023-04-21T15:36:06.903Z,22.35
2023-04-21T15:39:14.253Z,21.91
2023-04-21T15:42:18.125Z,21.46
2023-04-21T15:45:21.896Z,21.78
2023-04-21T15:48:27.191Z,21.63
2023-04-21T15:51:32.502Z,21.69
2023-04-21T15:54:36.653Z,21.62
2023-04-21T15:57:40.858Z,21.46
2023-04-21T16:00:44.884Z,21.26
2023-04-21T16:03:50.325Z,21.11
2023-04-21T16:06:54.315Z,21.01
2023-04-21T16:09:58.218Z,20.81
2023-04-21T16:13:02.046Z,20.75
2023-04-21T16:16:05.945Z,20.57
2023-04-21T16:19:11.129Z,20.49
2023-04-21T16:22:14.854Z,20.32
2023-04-21T16:25:19.662Z,20.38
2023-04-21T16:28:23.616Z,20.29
2023-04-21T16:31:27.409Z,20.33
2023-04-21T16:34:32.566Z,20.30
2023-04-21T16:37:38.477Z,20.27
2023-04-21T16:40:42.181Z,20.06
2023-04-21T16:43:45.927Z,20.10
2023-04-21T16:46:49.768Z,19.90
2023-04-21T16:49:55.021Z,19.94
2023-04-21T16:52:58.754Z,19.80
2023-04-21T16:56:02.412Z,19.80
2023-04-21T16:59:08.327Z,19.85
2023-04-21T17:02:12.174Z,19.62
2023-04-21T17:05:17.934Z,19.73
2023-04-21T17:08:21.872Z,19.54
2023-04-21T17:11:25.683Z,19.63
2023-04-21T17:14:29.524Z,19.65
2023-04-21T17:17:43.522Z,19.64
2023-04-21T17:20:48.845Z,18.93
2023-04-21T17:23:52.594Z,18.65
2023-04-21T17:26:56.804Z,18.70
2023-04-21T17:30:00.572Z,18.29
2023-04-21T17:33:16.094Z,17.97
2023-04-21T17:36:22.328Z,17.66
2023-04-21T17:39:26.564Z,17.62
2023-04-21T17:42:30.395Z,17.31
2023-04-21T17:45:34.177Z,16.96
2023-04-21T17:48:37.833Z,16.88
2023-04-21T17:51:42.991Z,17.04
2023-04-21T17:54:47.111Z,16.54
2023-04-21T17:57:50.853Z,16.76
2023-04-21T18:00:54.659Z,16.45
2023-04-21T18:04:00.959Z,16.52
2023-04-21T18:07:06.871Z,16.30
2023-04-21T18:10:11.179Z,16.36
2023-04-21T18:13:14.870Z,16.01
2023-04-21T18:16:18.608Z,16.00
2023-04-21T18:19:22.302Z,16.16
2023-04-21T18:22:27.489Z,16.29
2023-04-21T18:25:42.164Z,16.20
2023-04-21T18:28:47.106Z,15.73
2023-04-21T18:31:50.952Z,15.91
2023-04-21T18:34:54.728Z,15.65
2023-04-21T18:37:59.882Z,15.93
2023-04-21T18:41:04.109Z,15.74
2023-04-21T18:44:08.130Z,16.03
2023-04-21T18:47:12.332Z,16.01
2023-04-21T18:50:16.277Z,15.90
2023-04-21T18:53:21.454Z,16.04
2023-04-21T18:56:25.602Z,15.96
2023-04-21T18:59:29.302Z,15.88
2023-04-21T19:02:33.055Z,16.00
2023-04-21T19:05:37.866Z,15.98
2023-04-21T19:08:43.239Z,16.02
2023-04-21T19:11:47.218Z,16.00
2023-04-21T19:14:51.555Z,16.11
2023-04-21T19:17:56.212Z,15.70
2023-04-21T19:20:59.885Z,15.99
2023-04-21T19:24:05.290Z,15.80
2023-04-21T19:27:09.342Z,16.20
2023-04-21T19:30:13.759Z,16.05
2023-04-21T19:33:17.608Z,16.05
2023-04-21T19:36:21.751Z,16.06
2023-04-21T19:39:26.881Z,15.93
2023-04-21T19:42:31.017Z,16.02
2023-04-21T19:45:34.777Z,16.02
2023-04-21T19:48:41.347Z,16.00
2023-04-21T19:51:46.331Z,16.09
2023-04-21T19:54:51.741Z,16.15
2023-04-21T19:57:55.527Z,16.06
2023-04-21T20:00:59.959Z,15.83
2023-04-21T20:04:04.877Z,15.85
2023-04-21T20:07:09.554Z,15.68
2023-04-21T20:10:15.061Z,15.86
2023-04-21T20:13:18.803Z,15.74
2023-04-21T20:16:22.570Z,15.72
2023-04-21T20:19:27.193Z,15.97
2023-04-21T20:22:31.126Z,16.07
2023-04-21T20:25:36.537Z,16.15
2023-04-21T20:28:40.331Z,15.96
2023-04-21T20:31:45.573Z,15.85
2023-04-21T20:34:49.256Z,15.78
2023-04-21T20:37:53.737Z,15.77
2023-04-21T20:40:59.955Z,15.97
2023-04-21T20:44:04.487Z,15.93
2023-04-21T20:47:08.982Z,15.67
2023-04-21T20:50:13.726Z,15.54
2023-04-21T20:53:17.464Z,15.56
2023-04-21T20:56:22.899Z,15.32
2023-04-21T20:59:26.621Z,15.46
2023-04-21T21:02:30.449Z,15.66
2023-04-21T21:05:34.872Z,15.88
2023-04-21T21:08:38.747Z,16.02
2023-04-21T21:11:43.909Z,15.70
2023-04-21T21:14:47.558Z,15.42
2023-04-21T21:17:51.325Z,15.59
2023-04-21T21:20:55.133Z,15.90
2023-04-21T21:23:58.718Z,15.75
2023-04-21T21:27:03.935Z,15.65
2023-04-21T21:30:09.084Z,15.54
2023-04-21T21:33:13.210Z,15.41
2023-04-21T21:36:17.002Z,15.54
2023-04-21T21:39:20.878Z,15.14
2023-04-21T21:42:26.169Z,15.05
2023-04-21T21:45:29.817Z,15.12
2023-04-21T21:48:33.653Z,15.26
2023-04-21T21:51:37.288Z,15.29
2023-04-21T21:54:41.149Z,15.00
2023-04-21T21:57:46.301Z,15.08
2023-04-21T22:00:52.098Z,15.22
2023-04-21T22:03:55.851Z,15.28
2023-04-21T22:06:59.600Z,15.32
2023-04-21T22:10:04.034Z,15.23
2023-04-21T22:13:09.236Z,15.49
2023-04-21T22:16:13.127Z,15.33
2023-04-21T22:19:17.913Z,15.46
2023-04-21T22:22:21.800Z,15.48
2023-04-21T22:25:27.350Z,15.48
2023-04-21T22:28:32.469Z,15.59
2023-04-21T22:31:36.293Z,15.57
2023-04-21T22:34:40.090Z,15.44
2023-04-21T22:37:43.980Z,15.58
2023-04-21T22:40:48.100Z,15.63
2023-04-21T22:43:53.121Z,15.57
2023-04-21T22:46:57.244Z,15.65
2023-04-21T22:50:01.118Z,15.60
2023-04-21T22:53:04.755Z,15.50
2023-04-21T22:56:08.417Z,15.42
2023-04-21T22:59:13.461Z,15.61
2023-04-21T23:02:17.243Z,15.65
2023-04-21T23:05:21.193Z,15.37
2023-04-21T23:08:24.942Z,15.57
2023-04-21T23:11:28.643Z,15.33
2023-04-21T23:14:33.822Z,15.46
2023-04-21T23:17:37.520Z,15.54
2023-04-21T23:20:41.187Z,14.98
2023-04-21T23:23:44.882Z,15.40
2023-04-21T23:26:48.420Z,15.43
2023-04-21T23:29:53.594Z,15.31
2023-04-21T23:32:57.366Z,15.34
2023-04-21T23:36:01.150Z,15.07
2023-04-21T23:39:04.929Z,15.47
2023-04-21T23:42:09.558Z,15.18
2023-04-21T23:45:14.767Z,15.66
2023-04-21T23:48:18.338Z,15.86
2023-04-21T23:51:22.070Z,15.76
2023-04-21T23:54:25.663Z,15.87
2023-04-21T23:57:29.339Z,16.05
